Airports Jersey Jersey Airport

Jersey Airport (EGJJ / JER)

Facts about Jersey Airport

Name Jersey Airport
City Jersey
Country Jersey
ICAO code EGJJ
IATA code JER
Elevation 84.4296 meters (277 feet)

Weather

METAR

Metar data retrieved Saturday, 20 July 2024 at 00:25 UTC (7 minutes ago)

EGJJ 192350Z AUTO VRB02KT 9000 OVC004/// 17/16 Q1014

Live traffic

Navigraph Charts (account required)